Time;durP1;ratioP1;P1;durP2;ratioP2;P2;SDS_P1;SDS_P2;PMS_P1;PMS_P2;Temp;Humidity;BMP_temperature;BMP_pressure;BME280_temperature;BME280_humidity;BME280_pressure;Samples;Min_cycle;Max_cycle;Signal;HPM_P1;HPM_P2
2023/08/07 00:00:22;;;;;;;10.00;2.20;;;13.30;99.90;;;;;;5075161;28;20068;-82
2023/08/07 00:02:49;;;;;;;5.05;1.88;;;13.30;99.90;;;;;;5058285;28;20119;-80
2023/08/07 00:05:18;;;;;;;6.43;1.98;;;13.20;99.90;;;;;;5058244;28;20047;-82
2023/08/07 00:10:31;;;;;;;8.35;1.88;;;13.20;99.90;;;;;;5075936;28;20044;-82
2023/08/07 00:12:58;;;;;;;8.90;2.08;;;13.20;99.90;;;;;;5074888;28;20036;-81
2023/08/07 00:15:24;;;;;;;4.65;1.70;;;13.20;99.90;;;;;;5058615;28;20046;-81
2023/08/07 00:17:52;;;;;;;4.80;1.55;;;13.10;99.90;;;;;;5075197;28;20040;-80
2023/08/07 00:20:19;;;;;;;7.93;2.00;;;13.20;99.90;;;;;;5057058;28;20421;-82
2023/08/07 00:22:46;;;;;;;4.00;1.48;;;13.20;99.90;;;;;;5057728;28;20106;-81
2023/08/07 00:25:12;;;;;;;3.90;1.48;;;13.10;99.90;;;;;;5057893;28;20123;-81
2023/08/07 00:30:24;;;;;;;4.43;1.52;;;13.20;99.90;;;;;;5057874;28;20139;-83
2023/08/07 00:32:51;;;;;;;6.55;1.80;;;13.30;99.90;;;;;;5050654;28;20064;-84
2023/08/07 00:35:18;;;;;;;4.10;1.63;;;13.30;99.90;;;;;;5054541;28;20041;-83
2023/08/07 00:37:47;;;;;;;6.28;1.50;;;13.30;99.90;;;;;;5037514;28;20056;-83
2023/08/07 00:40:13;;;;;;;4.63;1.67;;;13.30;99.90;;;;;;5065712;28;20071;-83
2023/08/07 00:42:40;;;;;;;4.72;1.63;;;13.30;99.90;;;;;;5057438;28;20110;-83
2023/08/07 00:45:07;;;;;;;7.10;1.60;;;13.30;99.90;;;;;;5040733;28;20106;-82
2023/08/07 00:47:34;;;;;;;4.43;1.75;;;13.30;99.90;;;;;;5074204;28;20119;-83
2023/08/07 00:50:02;;;;;;;6.35;1.75;;;13.30;99.90;;;;;;5041767;28;20044;-80
2023/08/07 00:52:29;;;;;;;4.18;1.60;;;13.30;99.90;;;;;;5056458;28;20103;-81
2023/08/07 00:54:56;;;;;;;5.95;1.90;;;13.30;99.90;;;;;;5057357;28;20041;-81
2023/08/07 00:57:24;;;;;;;5.40;1.80;;;13.30;99.90;;;;;;5040704;28;20137;-80
2023/08/07 00:59:51;;;;;;;5.28;1.80;;;13.30;99.90;;;;;;5039858;28;20044;-81
2023/08/07 01:02:18;;;;;;;5.68;1.77;;;13.20;99.90;;;;;;5057336;28;20521;-82
2023/08/07 01:04:45;;;;;;;4.68;1.63;;;13.20;99.90;;;;;;5057296;28;20033;-80
2023/08/07 01:07:14;;;;;;;8.30;1.70;;;13.10;99.90;;;;;;5056129;28;20040;-84
2023/08/07 01:09:40;;;;;;;6.35;1.80;;;13.10;99.90;;;;;;5057255;28;20106;-82
2023/08/07 01:12:09;;;;;;;11.10;1.92;;;13.00;99.90;;;;;;5069721;28;20032;-84
2023/08/07 01:14:36;;;;;;;5.88;1.60;;;13.00;99.90;;;;;;5047267;28;20076;-83
2023/08/07 01:17:03;;;;;;;5.18;1.70;;;12.90;99.90;;;;;;5056605;28;20068;-80
2023/08/07 01:19:30;;;;;;;4.78;1.80;;;12.90;99.90;;;;;;5056399;28;20049;-80
2023/08/07 01:21:57;;;;;;;8.85;1.67;;;12.90;99.90;;;;;;5057809;28;20076;-81
2023/08/07 01:24:23;;;;;;;12.10;1.77;;;12.90;99.90;;;;;;5057175;28;20072;-80
2023/08/07 01:26:51;;;;;;;5.32;1.60;;;12.80;99.90;;;;;;5073693;28;20063;-81
2023/08/07 01:29:18;;;;;;;7.47;2.08;;;12.80;99.90;;;;;;5057137;28;20363;-80
2023/08/07 01:31:45;;;;;;;3.17;1.23;;;12.80;99.90;;;;;;5056792;28;20044;-82
2023/08/07 01:34:12;;;;;;;4.47;1.50;;;12.70;99.90;;;;;;5056343;28;20094;-83
2023/08/07 01:36:39;;;;;;;5.60;1.38;;;12.70;99.90;;;;;;5056932;28;20114;-82
2023/08/07 01:39:06;;;;;;;4.45;1.50;;;12.70;99.90;;;;;;5039125;28;20068;-82
2023/08/07 01:41:33;;;;;;;4.53;1.63;;;12.60;99.90;;;;;;5056787;28;20063;-82
2023/08/07 01:44:00;;;;;;;3.15;1.27;;;12.60;99.90;;;;;;5056893;28;20427;-81
2023/08/07 01:46:29;;;;;;;4.40;1.52;;;12.50;99.90;;;;;;5039311;28;20084;-81
2023/08/07 01:48:56;;;;;;;5.15;1.67;;;12.50;99.90;;;;;;5074647;28;20048;-83
2023/08/07 01:51:23;;;;;;;4.97;1.60;;;12.40;99.90;;;;;;5085689;28;20115;-81
2023/08/07 01:53:49;;;;;;;3.42;1.25;;;12.50;99.90;;;;;;5073498;28;20136;-80
2023/08/07 01:56:16;;;;;;;6.55;1.75;;;12.40;99.90;;;;;;5056776;28;20102;-80
2023/08/07 01:58:43;;;;;;;3.05;1.30;;;12.40;99.90;;;;;;5056383;28;20048;-82
2023/08/07 02:01:10;;;;;;;4.82;1.48;;;12.30;99.90;;;;;;5039986;28;20049;-81
2023/08/07 02:03:37;;;;;;;6.55;1.55;;;12.30;99.90;;;;;;5037259;28;20391;-82
2023/08/07 02:08:50;;;;;;;3.78;1.30;;;12.30;99.90;;;;;;5060266;28;20048;-81
2023/08/07 02:11:17;;;;;;;3.95;1.45;;;12.30;99.90;;;;;;5060357;28;20051;-82
2023/08/07 02:13:44;;;;;;;6.32;1.55;;;12.30;99.90;;;;;;5059465;28;20375;-83
2023/08/07 02:16:10;;;;;;;5.07;1.45;;;12.20;99.90;;;;;;5060810;28;20048;-83
2023/08/07 02:18:37;;;;;;;3.78;1.40;;;12.20;99.90;;;;;;5060141;28;20393;-83
2023/08/07 02:21:04;;;;;;;3.22;1.25;;;12.20;99.90;;;;;;5059820;28;20407;-82
2023/08/07 02:23:30;;;;;;;4.60;1.67;;;12.10;99.90;;;;;;5078003;28;20040;-81
2023/08/07 02:25:59;;;;;;;3.58;1.27;;;12.10;99.90;;;;;;5059208;28;20045;-80
2023/08/07 02:28:27;;;;;;;4.13;1.50;;;12.10;99.90;;;;;;5047585;28;20156;-80
2023/08/07 02:30:54;;;;;;;3.55;1.10;;;12.00;99.90;;;;;;5057070;28;20176;-83
2023/08/07 02:33:21;;;;;;;4.07;1.45;;;12.00;99.90;;;;;;5070700;28;20475;-83
2023/08/07 02:35:47;;;;;;;4.97;1.30;;;11.90;99.90;;;;;;5059890;28;20141;-80
2023/08/07 02:38:14;;;;;;;3.90;1.35;;;11.90;99.90;;;;;;5050603;28;20044;-81
2023/08/07 02:40:40;;;;;;;7.38;1.50;;;11.80;99.90;;;;;;5038033;28;20156;-81
2023/08/07 02:43:07;;;;;;;3.05;1.13;;;11.80;99.90;;;;;;5043020;28;20071;-83
2023/08/07 02:45:36;;;;;;;4.60;1.60;;;11.80;99.90;;;;;;5042307;28;20048;-80
2023/08/07 02:48:03;;;;;;;5.25;1.48;;;11.70;99.90;;;;;;5059360;28;20371;-82
2023/08/07 02:50:32;;;;;;;3.58;1.42;;;11.70;99.90;;;;;;5039688;28;20515;-83
2023/08/07 02:52:59;;;;;;;5.85;1.13;;;11.70;99.90;;;;;;5057427;28;20040;-83
2023/08/07 02:55:25;;;;;;;4.10;1.42;;;11.60;99.90;;;;;;5059631;28;20471;-81
2023/08/07 02:57:53;;;;;;;3.80;1.30;;;11.50;99.90;;;;;;5076771;28;20051;-83
2023/08/07 03:00:20;;;;;;;3.38;1.20;;;11.50;99.90;;;;;;5042132;28;20040;-83
2023/08/07 03:02:49;;;;;;;3.90;1.30;;;11.40;99.90;;;;;;5076646;28;20044;-82
2023/08/07 03:05:16;;;;;;;3.53;1.30;;;11.40;99.90;;;;;;5059161;28;20371;-82
2023/08/07 03:07:44;;;;;;;4.20;1.60;;;11.40;99.90;;;;;;5058167;28;20464;-79
2023/08/07 03:10:11;;;;;;;4.10;1.52;;;11.40;99.90;;;;;;5045103;28;20101;-82
2023/08/07 03:12:38;;;;;;;3.83;1.40;;;11.30;99.90;;;;;;5041795;28;20044;-82
2023/08/07 03:15:05;;;;;;;4.13;1.48;;;11.30;99.90;;;;;;5059055;28;20468;-82
2023/08/07 03:17:34;;;;;;;4.43;1.63;;;11.30;99.90;;;;;;5057488;28;20056;-82
2023/08/07 03:20:01;;;;;;;3.28;1.20;;;11.30;99.90;;;;;;5058196;28;20059;-81
2023/08/07 03:22:28;;;;;;;4.53;1.30;;;11.30;99.90;;;;;;5077009;28;20123;-79
2023/08/07 03:24:55;;;;;;;3.70;1.30;;;11.30;99.90;;;;;;5058919;28;20109;-80
2023/08/07 03:30:07;;;;;;;4.60;1.40;;;11.20;99.90;;;;;;5056886;28;20041;-80
2023/08/07 03:32:34;;;;;;;5.15;1.30;;;11.20;99.90;;;;;;5042462;28;20044;-80
2023/08/07 03:35:00;;;;;;;2.88;1.10;;;11.10;99.90;;;;;;5058642;28;20051;-82
2023/08/07 03:37:28;;;;;;;3.80;1.30;;;11.10;99.90;;;;;;5076013;28;20463;-80
2023/08/07 03:39:55;;;;;;;4.93;1.30;;;11.10;99.90;;;;;;5041963;28;20041;-80
2023/08/07 03:42:22;;;;;;;2.40;1.00;;;11.10;99.90;;;;;;5058528;28;20040;-83
2023/08/07 03:44:48;;;;;;;9.68;1.70;;;11.10;99.90;;;;;;5076137;28;20040;-81
2023/08/07 03:47:17;;;;;;;2.83;1.20;;;11.00;99.90;;;;;;5044372;28;20041;-81
2023/08/07 03:49:44;;;;;;;3.22;1.40;;;11.00;99.90;;;;;;5075234;28;20119;-82
2023/08/07 03:52:11;;;;;;;4.72;1.30;;;11.00;99.90;;;;;;5057954;28;20055;-82
2023/08/07 03:54:38;;;;;;;2.72;1.00;;;11.00;99.90;;;;;;5041843;28;20082;-81
2023/08/07 03:59:51;;;;;;;3.53;1.27;;;10.90;99.90;;;;;;5075359;28;20048;-82
2023/08/07 04:02:18;;;;;;;5.00;1.30;;;10.90;99.90;;;;;;5058265;28;20082;-80
2023/08/07 04:04:45;;;;;;;6.18;1.42;;;10.90;99.90;;;;;;5043867;28;20040;-81
2023/08/07 04:09:58;;;;;;;4.28;1.15;;;10.90;99.90;;;;;;5075638;28;20044;-81
2023/08/07 04:12:25;;;;;;;8.38;1.45;;;10.80;99.90;;;;;;5050772;28;20140;-82
2023/08/07 04:14:52;;;;;;;5.55;1.50;;;10.80;99.90;;;;;;5050730;28;20425;-81
2023/08/07 04:17:19;;;;;;;2.75;1.13;;;10.80;99.90;;;;;;5075141;28;20033;-80
2023/08/07 04:19:46;;;;;;;3.70;1.20;;;10.90;99.90;;;;;;5074823;28;20124;-81
2023/08/07 04:22:13;;;;;;;3.70;1.40;;;10.80;99.90;;;;;;5075359;28;20420;-81
2023/08/07 04:24:39;;;;;;;5.68;1.35;;;10.80;99.90;;;;;;5057883;28;20079;-80
2023/08/07 04:27:08;;;;;;;3.55;1.48;;;10.80;99.90;;;;;;5050035;28;20048;-82
2023/08/07 04:29:35;;;;;;;5.80;1.50;;;10.80;99.90;;;;;;5037326;28;20103;-82
2023/08/07 04:32:01;;;;;;;5.50;1.50;;;10.70;99.90;;;;;;5075736;28;20412;-81
2023/08/07 04:34:28;;;;;;;4.28;1.35;;;10.70;99.90;;;;;;5060409;28;20078;-81
2023/08/07 04:36:56;;;;;;;3.83;1.35;;;10.70;99.90;;;;;;5057397;28;20535;-83
2023/08/07 04:39:23;;;;;;;5.25;1.40;;;10.70;99.90;;;;;;5043095;28;20044;-83
2023/08/07 04:41:50;;;;;;;7.90;1.75;;;10.70;99.90;;;;;;5057399;28;20450;-81
2023/08/07 04:44:16;;;;;;;3.63;1.35;;;10.70;99.90;;;;;;5057339;28;20437;-82
2023/08/07 04:46:43;;;;;;;3.00;1.20;;;10.70;99.90;;;;;;5056602;28;20131;-82
2023/08/07 04:49:10;;;;;;;3.13;1.35;;;10.70;99.90;;;;;;5040748;28;20071;-84
2023/08/07 04:51:37;;;;;;;4.13;1.30;;;10.70;99.90;;;;;;5075097;28;20115;-81
2023/08/07 04:54:03;;;;;;;3.85;1.50;;;10.70;99.90;;;;;;5057027;28;20371;-81
2023/08/07 04:59:01;;;;;;;4.00;1.30;;;10.70;99.90;;;;;;5074340;28;20371;-82
2023/08/07 05:01:28;;;;;;;3.63;1.30;;;10.70;99.90;;;;;;5057400;28;20048;-83
2023/08/07 05:03:55;;;;;;;5.45;1.58;;;10.70;99.90;;;;;;5057266;28;20040;-80
2023/08/07 05:09:08;;;;;;;3.42;1.20;;;10.70;99.90;;;;;;5074731;28;20044;-81
2023/08/07 05:11:35;;;;;;;3.85;1.42;;;10.80;99.90;;;;;;5057093;28;20427;-81
2023/08/07 05:14:02;;;;;;;5.50;1.50;;;10.80;99.90;;;;;;5059610;28;20490;-82
2023/08/07 05:16:31;;;;;;;4.70;1.40;;;10.90;99.90;;;;;;5074647;28;20136;-82
2023/08/07 05:18:58;;;;;;;5.65;1.65;;;10.90;99.90;;;;;;5056342;28;20063;-81
2023/08/07 05:21:24;;;;;;;4.15;1.73;;;11.00;99.90;;;;;;5057305;28;20043;-82
2023/08/07 05:23:54;;;;;;;5.50;1.80;;;11.10;99.90;;;;;;5074438;28;20489;-81
2023/08/07 05:26:22;;;;;;;4.07;1.60;;;11.20;99.90;;;;;;5056138;28;20040;-80
2023/08/07 05:28:49;;;;;;;5.55;1.58;;;11.30;99.90;;;;;;5074489;28;20055;-81
2023/08/07 05:31:16;;;;;;;5.53;1.42;;;11.40;99.90;;;;;;5056834;28;20041;-81
2023/08/07 05:33:43;;;;;;;4.80;1.60;;;11.50;99.90;;;;;;5073596;28;20036;-81
2023/08/07 05:36:09;;;;;;;4.65;1.50;;;11.60;99.90;;;;;;5042428;28;20448;-80
2023/08/07 05:38:36;;;;;;;5.70;1.50;;;11.70;99.90;;;;;;5056050;28;20363;-81
2023/08/07 05:41:03;;;;;;;6.43;1.52;;;11.80;99.90;;;;;;5075350;28;20033;-81
2023/08/07 05:43:29;;;;;;;7.00;2.10;;;11.90;99.90;;;;;;5078336;28;20467;-82
2023/08/07 05:45:56;;;;;;;7.22;1.52;;;12.10;99.90;;;;;;5059497;28;20357;-81
2023/08/07 05:48:23;;;;;;;10.90;1.95;;;12.20;99.90;;;;;;5078387;28;20040;-80
2023/08/07 05:50:49;;;;;;;5.38;1.83;;;12.30;99.90;;;;;;5078296;28;20072;-82
2023/08/07 05:53:16;;;;;;;5.82;1.77;;;12.40;99.90;;;;;;5077451;28;20042;-82
2023/08/07 05:55:43;;;;;;;5.65;1.90;;;12.50;99.90;;;;;;5040497;28;20063;-81
2023/08/07 05:58:10;;;;;;;7.03;1.95;;;12.60;99.90;;;;;;5076383;28;20048;-81
2023/08/07 06:00:36;;;;;;;6.28;1.98;;;12.80;99.90;;;;;;5060165;28;20446;-82
2023/08/07 06:03:04;;;;;;;6.10;1.92;;;12.90;99.90;;;;;;5060574;28;20048;-80
2023/08/07 06:05:30;;;;;;;3.92;1.65;;;13.10;99.90;;;;;;5077022;28;20111;-80
2023/08/07 06:07:58;;;;;;;6.03;1.90;;;13.20;99.90;;;;;;5043584;28;20054;-81
2023/08/07 06:10:25;;;;;;;6.88;1.80;;;13.30;99.90;;;;;;5078292;28;20390;-80
2023/08/07 06:12:52;;;;;;;4.75;1.80;;;13.50;99.90;;;;;;5063536;28;20463;-81
2023/08/07 06:15:19;;;;;;;7.95;2.17;;;13.50;99.90;;;;;;5077795;28;20479;-82
2023/08/07 06:17:47;;;;;;;4.55;1.75;;;13.60;99.90;;;;;;5077579;28;20102;-82
2023/08/07 06:20:15;;;;;;;6.55;1.98;;;13.70;99.90;;;;;;5059343;28;20060;-81
2023/08/07 06:22:42;;;;;;;7.55;2.00;;;13.80;99.90;;;;;;5077698;28;20048;-80
2023/08/07 06:25:09;;;;;;;6.30;1.95;;;13.90;99.90;;;;;;5077552;28;20036;-81
2023/08/07 06:27:37;;;;;;;5.10;1.70;;;14.10;99.90;;;;;;5076537;28;20106;-79
2023/08/07 06:30:03;;;;;;;7.15;2.25;;;14.20;99.90;;;;;;5060002;28;20040;-82
2023/08/07 06:32:30;;;;;;;5.82;1.88;;;14.30;99.90;;;;;;5076649;28;20047;-83
2023/08/07 06:34:57;;;;;;;8.68;1.77;;;14.30;99.90;;;;;;5050168;28;20050;-81
2023/08/07 06:37:24;;;;;;;5.43;1.83;;;14.30;99.90;;;;;;5077272;28;20112;-82
2023/08/07 06:39:50;;;;;;;5.57;1.83;;;14.50;99.90;;;;;;5053342;28;20044;-81
2023/08/07 06:42:17;;;;;;;7.20;1.80;;;14.60;99.90;;;;;;5076901;28;20044;-79
2023/08/07 06:44:46;;;;;;;7.30;2.15;;;14.70;99.90;;;;;;5059240;28;20102;-81
2023/08/07 06:47:13;;;;;;;4.75;1.80;;;14.70;99.90;;;;;;5075973;28;20050;-81
2023/08/07 06:49:40;;;;;;;5.93;1.95;;;14.90;99.90;;;;;;5072042;28;20115;-80
2023/08/07 06:52:07;;;;;;;6.03;1.75;;;15.10;99.90;;;;;;5075761;28;20047;-80
2023/08/07 06:54:33;;;;;;;5.20;1.98;;;15.10;99.90;;;;;;5076993;28;20072;-81
2023/08/07 06:57:00;;;;;;;5.50;1.98;;;15.20;99.90;;;;;;5076970;28;20075;-81
2023/08/07 06:59:27;;;;;;;6.07;1.80;;;15.30;99.90;;;;;;5058678;28;20132;-80
2023/08/07 07:01:53;;;;;;;6.57;1.70;;;15.30;99.90;;;;;;5076975;28;20041;-80
2023/08/07 07:04:21;;;;;;;6.75;1.88;;;15.30;99.90;;;;;;5075693;28;20486;-80
2023/08/07 07:06:49;;;;;;;7.38;1.98;;;15.40;99.90;;;;;;5078915;28;20115;-80
2023/08/07 07:09:16;;;;;;;5.28;1.85;;;15.50;99.90;;;;;;5077034;28;20036;-81
2023/08/07 07:11:43;;;;;;;4.88;1.85;;;15.50;99.90;;;;;;5058567;28;20119;-81
2023/08/07 07:14:10;;;;;;;6.82;1.92;;;15.60;99.90;;;;;;5067342;28;20068;-81
2023/08/07 07:16:39;;;;;;;4.70;1.83;;;15.80;99.90;;;;;;5059300;28;20041;-83
2023/08/07 07:19:08;;;;;;;9.10;2.03;;;15.80;99.90;;;;;;5058969;28;20036;-81
2023/08/07 07:21:34;;;;;;;8.70;1.88;;;16.00;99.90;;;;;;5058827;28;20040;-82
2023/08/07 07:24:01;;;;;;;9.35;1.90;;;16.00;99.90;;;;;;5059248;28;20068;-81
2023/08/07 07:26:28;;;;;;;5.55;1.75;;;16.10;99.90;;;;;;5058052;28;20048;-81
2023/08/07 07:28:55;;;;;;;8.23;1.70;;;16.10;99.90;;;;;;5075783;28;20045;-81
2023/08/07 07:31:21;;;;;;;5.22;1.83;;;16.30;99.90;;;;;;5055833;28;21022;-84
2023/08/07 07:33:48;;;;;;;6.38;1.88;;;16.30;99.90;;;;;;5057727;28;20356;-84
2023/08/07 07:36:17;;;;;;;8.90;1.92;;;16.40;99.90;;;;;;5076023;28;20040;-84
2023/08/07 07:38:44;;;;;;;5.20;1.75;;;16.40;99.90;;;;;;5058659;28;20044;-84
2023/08/07 07:41:12;;;;;;;6.93;1.88;;;16.70;99.90;;;;;;5075199;28;20041;-86
2023/08/07 07:43:39;;;;;;;5.03;1.70;;;16.80;99.90;;;;;;5057723;28;20052;-85
2023/08/07 07:46:08;;;;;;;5.90;1.63;;;17.00;99.90;;;;;;5056612;28;20106;-83
2023/08/07 07:48:34;;;;;;;6.00;1.70;;;17.20;99.90;;;;;;5041555;28;20044;-87
2023/08/07 07:51:01;;;;;;;5.13;1.67;;;17.10;99.90;;;;;;5058427;28;20075;-86
2023/08/07 07:53:28;;;;;;;5.95;2.33;;;17.10;99.90;;;;;;5074818;28;20101;-85
2023/08/07 07:55:54;;;;;;;4.55;1.73;;;17.10;99.90;;;;;;5058167;28;20040;-83
2023/08/07 07:58:21;;;;;;;6.22;2.00;;;17.10;99.90;;;;;;5058676;28;20441;-87
2023/08/07 08:00:48;;;;;;;7.78;1.73;;;17.10;99.90;;;;;;5058157;28;20102;-85
2023/08/07 08:03:14;;;;;;;6.28;1.98;;;17.00;99.90;;;;;;5041695;28;20101;-87
2023/08/07 08:05:41;;;;;;;9.43;2.88;;;17.10;99.90;;;;;;5057446;28;20387;-84
2023/08/07 08:10:54;;;;;;;4.97;1.70;;;17.40;99.90;;;;;;5057490;28;20049;-84
2023/08/07 08:13:22;;;;;;;7.18;1.73;;;17.50;99.90;;;;;;5045823;28;20390;-85
2023/08/07 08:15:49;;;;;;;4.63;1.80;;;17.60;99.90;;;;;;5040518;28;20041;-84
2023/08/07 08:18:16;;;;;;;5.65;1.50;;;17.70;99.90;;;;;;5057787;28;20111;-84
2023/08/07 08:20:42;;;;;;;4.97;1.52;;;17.90;99.90;;;;;;5057097;28;20127;-87
2023/08/07 08:23:09;;;;;;;6.18;2.17;;;18.00;99.90;;;;;;5055804;28;20062;-84
2023/08/07 08:25:36;;;;;;;4.80;1.70;;;18.40;99.90;;;;;;5039882;28;20483;-84
2023/08/07 08:28:04;;;;;;;5.55;1.52;;;18.50;99.90;;;;;;5066501;28;20435;-86
2023/08/07 08:30:30;;;;;;;5.65;1.70;;;18.50;99.90;;;;;;5074518;28;20040;-83
2023/08/07 08:32:57;;;;;;;5.38;1.50;;;18.60;99.90;;;;;;5073710;28;20064;-85
2023/08/07 08:35:24;;;;;;;3.72;1.50;;;18.70;99.90;;;;;;5073875;28;20047;-88
2023/08/07 08:37:52;;;;;;;6.18;1.20;;;18.80;99.90;;;;;;5056368;28;20106;-83
2023/08/07 08:40:19;;;;;;;5.07;1.58;;;18.80;99.90;;;;;;5056001;28;20072;-83
2023/08/07 08:42:45;;;;;;;4.80;1.63;;;18.80;99.90;;;;;;5074931;28;20052;-85
2023/08/07 08:45:12;;;;;;;3.55;1.40;;;19.00;99.90;;;;;;5074921;28;20131;-82
2023/08/07 08:47:39;;;;;;;4.22;1.63;;;19.20;99.90;;;;;;5056260;28;20053;-82
2023/08/07 08:50:06;;;;;;;4.85;1.38;;;19.20;99.90;;;;;;5074799;28;20036;-82
2023/08/07 08:52:33;;;;;;;5.32;1.50;;;19.00;99.90;;;;;;5073946;28;20799;-83
2023/08/07 08:54:59;;;;;;;4.07;1.30;;;19.10;99.90;;;;;;5074455;28;20090;-85
2023/08/07 08:59:56;;;;;;;3.83;1.40;;;19.50;99.90;;;;;;5073673;28;20098;-83
2023/08/07 09:02:23;;;;;;;4.80;1.40;;;19.40;99.90;;;;;;5074163;28;20463;-82
2023/08/07 09:04:50;;;;;;;7.30;1.70;;;19.40;99.90;;;;;;5055881;28;20716;-82
2023/08/07 09:07:19;;;;;;;4.72;1.40;;;19.20;99.90;;;;;;5073580;28;20040;-85
2023/08/07 09:09:46;;;;;;;8.25;1.98;;;19.00;99.90;;;;;;5057045;28;20131;-81
2023/08/07 09:12:12;;;;;;;4.70;1.65;;;19.10;99.90;;;;;;5073671;28;20048;-84
2023/08/07 09:14:39;;;;;;;8.57;1.70;;;19.20;99.90;;;;;;5056868;28;20059;-84
2023/08/07 09:17:06;;;;;;;6.85;1.63;;;19.50;99.90;;;;;;5056789;28;20068;-81
2023/08/07 09:19:33;;;;;;;7.03;1.73;;;19.80;99.90;;;;;;5056097;28;20052;-82
2023/08/07 09:22:00;;;;;;;6.22;1.60;;;20.00;99.90;;;;;;5055034;28;20471;-82
2023/08/07 09:24:26;;;;;;;5.68;1.33;;;20.20;99.90;;;;;;5074169;28;20043;-81
2023/08/07 09:26:54;;;;;;;5.47;1.50;;;20.20;99.90;;;;;;5055731;28;20094;-82
2023/08/07 09:29:21;;;;;;;9.48;1.60;;;20.20;99.90;;;;;;5074028;28;20045;-83
2023/08/07 09:31:48;;;;;;;6.25;1.25;;;20.20;99.90;;;;;;5045067;28;20136;-85
2023/08/07 09:34:17;;;;;;;8.90;1.35;;;19.70;99.90;;;;;;5071666;28;20039;-84
2023/08/07 09:36:45;;;;;;;5.78;1.40;;;19.40;99.90;;;;;;5040110;28;20510;-84
2023/08/07 09:39:11;;;;;;;3.08;1.00;;;19.40;99.90;;;;;;5073223;28;20124;-85
2023/08/07 09:41:38;;;;;;;4.82;1.10;;;19.70;99.90;;;;;;5039879;28;20131;-82
2023/08/07 09:44:05;;;;;;;3.90;1.30;;;19.70;99.90;;;;;;5074320;28;20119;-84
2023/08/07 09:46:37;;;;;;;5.95;1.90;;;19.80;99.90;;;;;;5072679;28;20423;-82
2023/08/07 09:49:04;;;;;;;4.05;1.20;;;20.20;99.90;;;;;;5073851;28;20041;-83
2023/08/07 09:51:32;;;;;;;4.43;1.20;;;20.40;99.90;;;;;;5055833;28;20056;-85
2023/08/07 09:53:58;;;;;;;5.18;1.20;;;20.70;99.90;;;;;;5056002;28;20090;-84
2023/08/07 09:56:25;;;;;;;3.65;1.27;;;20.90;99.90;;;;;;5056842;28;20050;-85
2023/08/07 09:58:52;;;;;;;4.03;1.27;;;20.90;99.90;;;;;;5055821;28;20135;-86
2023/08/07 10:01:19;;;;;;;3.10;1.10;;;21.10;99.90;;;;;;5069546;28;20072;-83
2023/08/07 10:03:45;;;;;;;5.18;1.30;;;21.20;99.90;;;;;;5071264;28;20094;-83
2023/08/07 10:08:43;;;;;;;7.63;1.40;;;20.60;99.90;;;;;;5070886;28;20075;-84
2023/08/07 10:11:10;;;;;;;7.82;1.92;;;20.60;99.90;;;;;;5055307;28;20612;-84
2023/08/07 10:13:37;;;;;;;6.95;1.50;;;20.70;99.90;;;;;;5055535;28;20127;-85
2023/08/07 10:16:07;;;;;;;4.25;1.30;;;21.10;99.90;;;;;;5039321;28;20053;-87
2023/08/07 10:18:34;;;;;;;2.97;1.20;;;21.40;99.90;;;;;;5073314;28;20075;-84
2023/08/07 10:21:01;;;;;;;3.22;1.30;;;21.80;99.90;;;;;;5055227;28;20060;-84
2023/08/07 10:23:28;;;;;;;4.93;1.50;;;21.80;99.90;;;;;;5049971;28;20053;-86
2023/08/07 10:25:56;;;;;;;3.63;1.30;;;22.00;99.90;;;;;;5054892;28;20053;-85
2023/08/07 10:28:24;;;;;;;7.43;1.63;;;22.10;99.90;;;;;;5059898;28;20051;-84
2023/08/07 10:30:54;;;;;;;5.68;1.20;;;22.20;99.90;;;;;;5059018;28;20037;-86
2023/08/07 10:33:21;;;;;;;4.68;1.25;;;22.20;99.90;;;;;;5059138;28;20040;-84
2023/08/07 10:35:50;;;;;;;4.45;1.38;;;22.00;99.90;;;;;;5059791;28;20433;-85
2023/08/07 10:38:17;;;;;;;6.30;2.00;;;21.70;99.90;;;;;;5076277;28;20055;-82
2023/08/07 10:40:44;;;;;;;4.97;1.70;;;21.70;99.90;;;;;;5057947;28;20080;-87
2023/08/07 10:43:10;;;;;;;6.57;1.63;;;21.90;99.90;;;;;;5076162;28;20118;-84
2023/08/07 10:45:38;;;;;;;6.03;1.45;;;22.00;99.90;;;;;;5075462;28;20053;-84
2023/08/07 10:48:07;;;;;;;4.90;1.48;;;22.10;99.90;;;;;;5076363;28;20032;-84
2023/08/07 10:50:34;;;;;;;4.65;1.52;;;22.10;99.90;;;;;;5059716;28;20155;-85
2023/08/07 10:53:01;;;;;;;3.65;1.30;;;22.00;99.90;;;;;;5076119;28;20058;-85
2023/08/07 10:55:28;;;;;;;4.22;1.45;;;22.00;99.90;;;;;;5059488;28;20091;-83
2023/08/07 10:57:57;;;;;;;3.72;1.20;;;21.70;99.90;;;;;;5059445;28;20143;-84
2023/08/07 11:00:24;;;;;;;4.72;1.20;;;21.60;99.90;;;;;;5058514;28;20055;-84
2023/08/07 11:02:50;;;;;;;5.05;1.20;;;21.50;99.90;;;;;;5076623;28;20052;-82
2023/08/07 11:05:17;;;;;;;4.75;1.50;;;21.40;99.90;;;;;;5059384;28;20466;-84
2023/08/07 11:07:46;;;;;;;2.83;1.13;;;21.50;99.90;;;;;;5058896;28;20044;-86
2023/08/07 11:10:13;;;;;;;4.03;1.27;;;21.70;99.90;;;;;;5059221;28;20131;-82
2023/08/07 11:12:40;;;;;;;3.92;1.30;;;21.90;99.90;;;;;;5041424;28;20525;-82
2023/08/07 11:15:07;;;;;;;3.45;1.48;;;22.10;99.90;;;;;;5058832;28;20056;-82
2023/08/07 11:20:19;;;;;;;5.43;1.52;;;22.40;99.90;;;;;;5075727;28;20118;-82
2023/08/07 11:22:46;;;;;;;3.92;1.25;;;22.70;99.90;;;;;;5058811;28;20072;-84
2023/08/07 11:25:15;;;;;;;6.50;1.90;;;22.90;99.90;;;;;;5059499;28;20072;-81
2023/08/07 11:30:45;;;;;;;4.63;1.48;;;23.00;99.90;;;;;;5076119;28;20025;-82
2023/08/07 11:33:11;;;;;;;4.25;1.60;;;22.80;99.90;;;;;;5058161;28;20081;-81
2023/08/07 11:35:38;;;;;;;6.05;1.30;;;23.20;99.90;;;;;;5076187;28;20072;-82
2023/08/07 11:40:54;;;;;;;4.18;1.30;;;24.00;99.90;;;;;;5057509;28;20040;-83
2023/08/07 11:43:21;;;;;;;5.38;1.67;;;24.20;99.90;;;;;;5058376;28;20143;-84
2023/08/07 11:45:48;;;;;;;5.30;1.50;;;24.30;99.90;;;;;;5057574;28;20052;-84
2023/08/07 11:48:15;;;;;;;5.43;1.67;;;24.60;99.90;;;;;;5062179;28;20040;-85
2023/08/07 11:50:41;;;;;;;7.93;1.98;;;25.10;99.90;;;;;;5061160;28;20067;-84
2023/08/07 11:53:08;;;;;;;6.95;1.58;;;25.30;99.90;;;;;;5075448;28;20036;-85
2023/08/07 11:55:35;;;;;;;5.75;1.65;;;25.10;99.90;;;;;;5058231;28;20040;-84
2023/08/07 11:58:03;;;;;;;4.63;1.65;;;25.00;99.90;;;;;;5058052;28;20053;-84
2023/08/07 12:00:30;;;;;;;7.13;1.92;;;25.50;99.90;;;;;;5074683;28;20532;-84
2023/08/07 12:02:56;;;;;;;4.85;1.50;;;25.70;99.90;;;;;;5058122;28;20139;-84
2023/08/07 12:05:23;;;;;;;4.40;1.50;;;25.80;99.90;;;;;;5075542;28;20072;-84
2023/08/07 12:10:21;;;;;;;7.00;1.90;;;25.00;99.90;;;;;;5078948;28;20125;-84
2023/08/07 12:12:48;;;;;;;4.97;1.60;;;25.40;99.90;;;;;;5057265;28;20128;-84
2023/08/07 12:15:15;;;;;;;5.45;1.75;;;25.30;99.90;;;;;;5057991;28;20077;-84
2023/08/07 12:17:42;;;;;;;6.07;1.70;;;25.40;99.90;;;;;;5075646;28;20167;-84
2023/08/07 12:20:11;;;;;;;6.05;1.63;;;25.60;99.90;;;;;;5074456;28;20067;-85
2023/08/07 12:22:38;;;;;;;6.75;1.77;;;25.90;99.90;;;;;;5075083;28;20040;-87
2023/08/07 12:25:05;;;;;;;5.50;1.70;;;26.30;99.90;;;;;;5057828;28;20033;-84
2023/08/07 12:27:33;;;;;;;7.10;1.75;;;26.00;99.90;;;;;;5074297;28;20127;-85
2023/08/07 12:30:00;;;;;;;4.22;1.50;;;25.40;99.90;;;;;;5057617;28;20596;-85
2023/08/07 12:32:27;;;;;;;5.13;1.70;;;25.00;99.90;;;;;;5074249;28;20503;-85
2023/08/07 12:34:53;;;;;;;6.50;1.95;;;25.00;99.90;;;;;;5057784;28;20479;-85
2023/08/07 12:37:25;;;;;;;4.28;1.65;;;25.30;99.90;;;;;;5057436;28;20135;-86
2023/08/07 12:39:52;;;;;;;5.65;1.75;;;26.10;99.90;;;;;;5056905;28;20135;-85
2023/08/07 12:42:21;;;;;;;4.95;1.80;;;26.20;99.90;;;;;;5074610;28;20055;-85
2023/08/07 12:44:50;;;;;;;6.28;2.00;;;25.90;99.90;;;;;;5073853;28;20056;-85
2023/08/07 12:50:04;;;;;;;5.72;2.13;;;24.40;99.90;;;;;;5045380;28;20391;-85
2023/08/07 12:52:31;;;;;;;7.95;3.15;;;24.30;99.90;;;;;;5073605;28;20471;-84
2023/08/07 12:54:58;;;;;;;3.80;1.55;;;24.00;99.90;;;;;;5057124;28;20117;-85
2023/08/07 12:57:26;;;;;;;5.72;1.63;;;23.70;99.90;;;;;;5046689;28;20056;-85
2023/08/07 12:59:53;;;;;;;6.35;2.00;;;23.50;99.90;;;;;;5055683;28;20090;-86
2023/08/07 13:02:20;;;;;;;6.50;2.20;;;23.40;99.90;;;;;;5074546;28;20048;-84
2023/08/07 13:04:46;;;;;;;6.13;2.47;;;24.50;99.90;;;;;;5074674;28;20033;-85
2023/08/07 13:09:59;;;;;;;7.15;1.80;;;25.40;99.90;;;;;;5074651;28;20101;-85
2023/08/07 13:12:25;;;;;;;6.47;2.85;;;26.20;98.80;;;;;;5073594;28;20847;-83
2023/08/07 13:14:52;;;;;;;6.57;2.67;;;26.60;98.20;;;;;;5074542;28;20405;-84
2023/08/07 13:17:19;;;;;;;5.00;2.00;;;26.20;97.90;;;;;;5074730;28;20441;-83
2023/08/07 13:19:45;;;;;;;5.95;2.72;;;25.90;98.20;;;;;;5073855;28;20041;-85
2023/08/07 13:22:12;;;;;;;7.25;2.75;;;26.40;99.40;;;;;;5056941;28;20127;-84
2023/08/07 13:24:39;;;;;;;13.10;3.35;;;26.90;98.70;;;;;;5057012;28;20534;-86
2023/08/07 13:29:51;;;;;;;6.88;2.20;;;27.30;96.70;;;;;;5059896;28;20102;-83
2023/08/07 13:32:20;;;;;;;7.60;3.22;;;28.00;96.70;;;;;;5069843;28;20126;-84